Haviland, Ohio
Current Conditions -  °F | °C
As of 10:53 PM on Tuesday 21 Oct 2014 (Local Time) from KDFI Reporting Station
Overcast Overcast  
Wind Chill:   Ceiling: 4700
Heat Index:   Visibility: 10mi
Dew Point:   Wind: 6mph
Humidity: 74%   Direction: 20°NNE
Pressure: 30.23"   Gusts: NA
Location:  41.02°N, 84.58°W
Report Text: KDFI 220253Z AUTO 02005KT 10SM FEW027 OVC047 07/03 A3023 RMK AO2 SLP239 T00720028 51017
Loading
Personal Weather Stations






























Interactive Weather Map
Tropical Storm Tracking
New forecast layout! Learn more

10-Day Weather Forecast

Advertisements
Track Severe Weather on mobile